Time;durP1;ratioP1;P1;durP2;ratioP2;P2;SDS_P1;SDS_P2;PMS_P1;PMS_P2;Temp;Humidity;BMP_temperature;BMP_pressure;BME280_temperature;BME280_humidity;BME280_pressure;Samples;Min_cycle;Max_cycle;Signal;HPM_P1;HPM_P2
2023/12/14 00:02:16;;;;;;;1.63;1.52;;;;;;;1.98;100.00;100251.56;4987618;28;20054;-80
2023/12/14 00:04:50;;;;;;;2.28;1.80;;;;;;;1.96;100.00;100261.69;4991662;28;20402;-79
2023/12/14 00:07:23;;;;;;;1.75;1.65;;;;;;;2.00;100.00;100266.38;4990907;28;20065;-78
2023/12/14 00:09:56;;;;;;;3.65;1.55;;;;;;;1.97;100.00;100260.66;5004666;28;20607;-79
2023/12/14 00:12:31;;;;;;;2.80;2.10;;;;;;;2.05;100.00;100268.34;4987961;28;20051;-78
2023/12/14 00:14:59;;;;;;;1.90;1.75;;;;;;;2.04;100.00;100275.59;4987579;28;20047;-80
2023/12/14 00:17:29;;;;;;;1.50;1.40;;;;;;;2.04;100.00;100272.91;4991890;28;20147;-78
2023/12/14 00:19:57;;;;;;;5.53;2.28;;;;;;;2.11;100.00;100275.44;4992303;28;20057;-78
2023/12/14 00:22:26;;;;;;;1.67;1.58;;;;;;;2.09;100.00;100280.25;4991221;28;20065;-78
2023/12/14 00:24:59;;;;;;;1.38;1.27;;;;;;;2.07;100.00;100281.53;4982417;28;20053;-78
2023/12/14 00:27:27;;;;;;;1.80;1.40;;;;;;;2.05;100.00;100281.78;4993090;28;20061;-78
2023/12/14 00:30:02;;;;;;;1.20;1.10;;;;;;;2.13;100.00;100286.78;4987101;28;20042;-79
2023/12/14 00:32:35;;;;;;;1.23;1.15;;;;;;;2.12;100.00;100295.88;4984936;28;20049;-79
2023/12/14 00:35:08;;;;;;;1.50;1.27;;;;;;;2.15;100.00;100295.41;4989257;28;20050;-79
2023/12/14 00:37:41;;;;;;;3.45;1.75;;;;;;;2.13;100.00;100297.53;4988053;28;20046;-79
2023/12/14 00:40:11;;;;;;;1.60;1.50;;;;;;;2.11;100.00;100298.81;5008650;28;20062;-80
2023/12/14 00:42:39;;;;;;;2.53;1.58;;;;;;;2.08;100.00;100308.13;5003291;28;20050;-78
2023/12/14 00:45:13;;;;;;;1.50;1.40;;;;;;;2.12;100.00;100312.00;4999161;28;20423;-79
2023/12/14 00:47:42;;;;;;;1.77;1.30;;;;;;;2.12;100.00;100301.25;4995699;28;20053;-78
2023/12/14 00:50:15;;;;;;;1.10;1.10;;;;;;;2.17;100.00;100309.44;5002077;28;20057;-79
2023/12/14 00:52:43;;;;;;;2.05;1.48;;;;;;;2.13;100.00;100316.31;4991369;28;20095;-79
2023/12/14 00:55:11;;;;;;;1.20;1.17;;;;;;;2.13;100.00;100318.19;4991896;28;20047;-78
2023/12/14 00:57:45;;;;;;;1.10;1.10;;;;;;;2.19;100.00;100322.63;4990534;28;20061;-79
2023/12/14 01:00:20;;;;;;;1.20;1.20;;;;;;;2.17;100.00;100327.41;4991634;28;20415;-79
2023/12/14 01:02:48;;;;;;;1.23;1.17;;;;;;;2.23;100.00;100331.84;4989353;28;20050;-79
2023/12/14 01:05:16;;;;;;;1.80;1.38;;;;;;;2.16;100.00;100336.53;4990356;28;20050;-79
2023/12/14 01:07:49;;;;;;;1.40;1.30;;;;;;;2.22;100.00;100349.00;4985395;28;20057;-79
2023/12/14 01:10:18;;;;;;;1.58;1.40;;;;;;;2.20;100.00;100348.44;5000511;28;20057;-79
2023/12/14 01:12:46;;;;;;;1.05;1.05;;;;;;;2.19;100.00;100352.16;4991098;28;20046;-79
2023/12/14 01:15:20;;;;;;;1.48;1.38;;;;;;;2.17;100.00;100360.44;5003921;28;20050;-78
2023/12/14 01:17:53;;;;;;;1.20;1.15;;;;;;;2.23;100.00;100368.63;4987981;28;20050;-80
2023/12/14 01:20:27;;;;;;;1.13;1.13;;;;;;;2.20;100.00;100372.59;4976866;28;20059;-78
2023/12/14 01:22:55;;;;;;;1.20;1.10;;;;;;;2.20;100.00;100367.22;5000730;28;20053;-79
2023/12/14 01:25:28;;;;;;;1.15;1.15;;;;;;;2.25;100.00;100374.56;4986934;28;20434;-79
2023/12/14 01:27:56;;;;;;;0.95;0.95;;;;;;;2.26;100.00;100377.03;4999400;28;20047;-79
2023/12/14 01:30:31;;;;;;;1.92;1.23;;;;;;;2.21;100.00;100390.34;4989654;28;20143;-80
2023/12/14 01:33:04;;;;;;;1.17;1.17;;;;;;;2.27;100.00;100388.59;4992760;28;20046;-79
2023/12/14 01:35:32;;;;;;;1.00;1.00;;;;;;;2.25;100.00;100379.94;4990554;28;20591;-81
2023/12/14 01:38:00;;;;;;;1.15;1.15;;;;;;;2.37;100.00;100386.13;4986376;28;20068;-81
2023/12/14 01:40:34;;;;;;;1.40;1.30;;;;;;;2.31;100.00;100395.13;4986665;28;20046;-78
2023/12/14 01:43:09;;;;;;;1.20;1.10;;;;;;;2.29;100.00;100399.91;4994601;28;20046;-78
2023/12/14 01:45:43;;;;;;;1.10;1.10;;;;;;;2.25;100.00;100396.06;4986632;28;20042;-78
2023/12/14 01:48:12;;;;;;;1.30;1.20;;;;;;;2.23;100.00;100407.03;5006631;28;20065;-79
2023/12/14 01:50:40;;;;;;;1.30;1.20;;;;;;;2.26;100.00;100405.75;4988388;28;20058;-78
2023/12/14 01:53:13;;;;;;;3.15;1.35;;;;;;;2.17;100.00;100399.91;4990649;28;20050;-79
2023/12/14 01:55:46;;;;;;;1.58;1.48;;;;;;;2.30;100.00;100402.34;4988690;28;20053;-79
2023/12/14 01:58:19;;;;;;;1.10;1.10;;;;;;;2.32;100.00;100413.69;4990498;28;20046;-78
2023/12/14 02:01:00;;;;;;;1.23;1.20;;;;;;;2.26;100.00;100408.44;4984429;28;20046;-80
2023/12/14 02:03:29;;;;;;;1.77;1.42;;;;;;;2.30;100.00;100414.97;5001226;28;20463;-78
2023/12/14 02:06:02;;;;;;;1.10;1.00;;;;;;;2.28;100.00;100417.06;4990760;28;20046;-79
2023/12/14 02:08:30;;;;;;;1.38;1.27;;;;;;;2.35;100.00;100415.13;4996209;28;20051;-79
2023/12/14 02:10:58;;;;;;;1.15;1.15;;;;;;;2.29;100.00;100421.41;4990637;28;20391;-78
2023/12/14 02:13:27;;;;;;;1.38;1.27;;;;;;;2.31;100.00;100416.63;4990700;28;20502;-78
2023/12/14 02:16:01;;;;;;;1.27;1.17;;;;;;;2.44;100.00;100415.56;4987487;28;20617;-79
2023/12/14 02:18:30;;;;;;;1.48;1.38;;;;;;;2.45;100.00;100411.84;4989566;28;20515;-79
2023/12/14 02:21:03;;;;;;;4.53;1.55;;;;;;;2.42;100.00;100421.19;4987494;28;20043;-79
2023/12/14 02:23:33;;;;;;;1.10;1.10;;;;;;;2.35;100.00;100418.59;4990164;28;20038;-78
2023/12/14 02:26:01;;;;;;;1.88;1.55;;;;;;;2.40;100.00;100423.28;4983218;28;20046;-78
2023/12/14 02:28:34;;;;;;;1.65;1.55;;;;;;;2.43;100.00;100419.31;4990975;28;20054;-79
2023/12/14 02:31:03;;;;;;;1.42;1.33;;;;;;;2.49;100.00;100424.56;4989087;28;20054;-79
2023/12/14 02:33:36;;;;;;;1.60;1.30;;;;;;;2.36;100.00;100420.25;4980064;28;20035;-79
2023/12/14 02:36:09;;;;;;;1.45;1.35;;;;;;;2.32;100.00;100424.44;4982211;28;20043;-82
2023/12/14 02:38:39;;;;;;;2.08;1.52;;;;;;;2.26;100.00;100438.78;4988421;28;20065;-78
2023/12/14 02:41:12;;;;;;;1.35;1.25;;;;;;;2.34;100.00;100429.59;5013660;28;20495;-79
2023/12/14 02:43:45;;;;;;;1.50;1.40;;;;;;;2.27;100.00;100437.75;4990474;28;20764;-78
2023/12/14 02:46:15;;;;;;;1.48;1.30;;;;;;;2.33;100.00;100450.22;4987775;28;20080;-78
2023/12/14 02:48:48;;;;;;;1.50;1.40;;;;;;;2.25;100.00;100455.97;4988447;28;20081;-78
2023/12/14 02:51:21;;;;;;;5.95;1.30;;;;;;;2.26;100.00;100457.56;5005530;28;20058;-77
2023/12/14 02:53:57;;;;;;;1.30;1.20;;;;;;;2.28;100.00;100457.34;4984272;28;20046;-79
2023/12/14 02:56:25;;;;;;;1.35;1.25;;;;;;;2.11;100.00;100460.69;4992722;28;20054;-78
2023/12/14 02:58:54;;;;;;;3.08;1.48;;;;;;;2.16;100.00;100454.66;4993509;28;20434;-78
2023/12/14 03:01:27;;;;;;;1.52;1.42;;;;;;;2.27;100.00;100461.09;4991611;28;21337;-78
2023/12/14 03:03:55;;;;;;;1.20;1.15;;;;;;;2.25;100.00;100460.50;4980966;28;20043;-78
2023/12/14 03:06:28;;;;;;;1.35;1.25;;;;;;;2.16;100.00;100468.06;4992822;28;20073;-79
2023/12/14 03:08:57;;;;;;;1.30;1.20;;;;;;;2.22;100.00;100461.75;4995186;28;20498;-78
2023/12/14 03:11:31;;;;;;;1.77;1.50;;;;;;;2.17;100.00;100464.34;4993486;28;20065;-79
2023/12/14 03:13:59;;;;;;;1.70;1.60;;;;;;;2.21;100.00;100469.00;4993620;28;20388;-78
2023/12/14 03:16:32;;;;;;;1.40;1.30;;;;;;;2.24;100.00;100469.59;4987330;28;20054;-78
2023/12/14 03:19:05;;;;;;;1.40;1.30;;;;;;;2.17;100.00;100478.56;5003837;28;20058;-78
2023/12/14 03:21:34;;;;;;;1.52;1.42;;;;;;;2.16;100.00;100478.81;4996276;28;20053;-78
2023/12/14 03:24:09;;;;;;;1.80;1.60;;;;;;;2.14;100.00;100481.72;4987418;28;20050;-79
2023/12/14 03:26:42;;;;;;;1.63;1.50;;;;;;;2.07;100.00;100494.41;4998279;28;20053;-77
2023/12/14 03:29:10;;;;;;;0.95;0.95;;;;;;;2.15;100.00;100494.06;5012031;28;20816;-78
2023/12/14 03:31:44;;;;;;;2.20;1.70;;;;;;;2.10;100.00;100499.34;4988666;28;20054;-78
2023/12/14 03:34:18;;;;;;;2.00;1.70;;;;;;;2.11;100.00;100502.81;5006230;28;20038;-78
2023/12/14 03:36:51;;;;;;;1.52;1.42;;;;;;;2.08;100.00;100505.97;4994430;28;20402;-82
2023/12/14 03:39:21;;;;;;;1.65;1.42;;;;;;;2.20;100.00;100509.53;5008800;28;20054;-78
2023/12/14 03:41:54;;;;;;;1.80;1.70;;;;;;;2.11;100.00;100514.38;4991454;28;21225;-78
2023/12/14 03:44:27;;;;;;;1.50;1.40;;;;;;;2.13;100.00;100522.22;4997441;28;20045;-78
2023/12/14 03:46:57;;;;;;;1.60;1.42;;;;;;;2.17;100.00;100518.84;5006141;28;20407;-78
2023/12/14 03:49:30;;;;;;;3.08;1.35;;;;;;;2.17;100.00;100523.41;4987740;28;20111;-78
2023/12/14 03:51:59;;;;;;;1.58;1.48;;;;;;;2.14;100.00;100531.91;4985750;28;20046;-78
2023/12/14 03:54:33;;;;;;;1.27;1.17;;;;;;;2.15;100.00;100538.91;5007870;28;20474;-78
2023/12/14 03:57:06;;;;;;;1.90;1.45;;;;;;;2.13;100.00;100533.78;4988394;28;20042;-79
2023/12/14 03:59:35;;;;;;;1.70;1.50;;;;;;;2.12;100.00;100548.22;5001146;28;20046;-78
2023/12/14 04:02:08;;;;;;;3.05;1.70;;;;;;;2.22;100.00;100545.00;5008575;28;20057;-78
2023/12/14 04:04:36;;;;;;;1.83;1.50;;;;;;;2.16;100.00;100546.72;5007482;28;20062;-79
2023/12/14 04:07:09;;;;;;;2.20;1.85;;;;;;;2.18;100.00;100557.25;5008495;28;20387;-78
2023/12/14 04:09:45;;;;;;;2.03;1.70;;;;;;;2.12;100.00;100560.84;4999002;28;20051;-78
2023/12/14 04:12:18;;;;;;;1.83;1.48;;;;;;;2.21;100.00;100571.03;4991504;28;20042;-79
2023/12/14 04:14:47;;;;;;;4.15;1.70;;;;;;;2.25;100.00;100570.59;5011229;28;20482;-79
2023/12/14 04:17:15;;;;;;;3.05;1.80;;;;;;;2.30;100.00;100566.16;5006202;28;20495;-78
2023/12/14 04:19:43;;;;;;;2.20;1.70;;;;;;;2.28;100.00;100570.13;5005863;28;20042;-77
2023/12/14 04:22:11;;;;;;;1.65;1.50;;;;;;;2.23;100.00;100568.13;5004886;28;20058;-79
2023/12/14 04:24:40;;;;;;;1.90;1.63;;;;;;;2.27;100.00;100577.38;4993802;28;20045;-78
2023/12/14 04:27:15;;;;;;;1.45;1.35;;;;;;;2.29;100.00;100577.97;5006516;28;20056;-78
2023/12/14 04:29:48;;;;;;;1.60;1.50;;;;;;;2.26;100.00;100581.09;5009167;28;20486;-78
2023/12/14 04:32:21;;;;;;;2.25;1.88;;;;;;;2.23;100.00;100578.88;4995458;28;20062;-79
2023/12/14 04:34:55;;;;;;;2.28;1.80;;;;;;;2.35;100.00;100585.09;5006535;28;20490;-78
2023/12/14 04:37:23;;;;;;;2.90;1.42;;;;;;;2.38;100.00;100579.28;4994297;28;20049;-78
2023/12/14 04:39:56;;;;;;;2.25;1.83;;;;;;;2.42;100.00;100587.72;4993119;28;20049;-78
2023/12/14 04:42:26;;;;;;;1.70;1.50;;;;;;;2.32;100.00;100590.09;5005108;28;20053;-78
2023/12/14 04:44:59;;;;;;;1.80;1.65;;;;;;;2.27;100.00;100590.00;5013477;28;20494;-78
2023/12/14 04:47:28;;;;;;;1.30;1.20;;;;;;;2.36;100.00;100597.50;5009225;28;20054;-78
2023/12/14 04:49:56;;;;;;;1.60;1.50;;;;;;;2.40;100.00;100600.53;5005812;28;20061;-78
2023/12/14 04:52:30;;;;;;;3.00;2.00;;;;;;;2.31;100.00;100605.41;4983866;28;20058;-80
2023/12/14 04:54:58;;;;;;;2.50;2.28;;;;;;;2.31;100.00;100597.34;5007990;28;20042;-82
2023/12/14 04:57:27;;;;;;;1.23;1.15;;;;;;;2.37;100.00;100598.31;4992523;28;20507;-80
2023/12/14 05:00:00;;;;;;;2.38;1.70;;;;;;;2.42;100.00;100597.63;5003965;28;20053;-79
2023/12/14 05:02:34;;;;;;;2.40;1.95;;;;;;;2.40;100.00;100597.03;4987796;28;20061;-78
2023/12/14 05:05:07;;;;;;;5.22;2.30;;;;;;;2.35;100.00;100603.91;5018881;28;20044;-78
2023/12/14 05:07:40;;;;;;;1.83;1.40;;;;;;;2.40;100.00;100619.34;5006768;28;20041;-78
2023/12/14 05:10:10;;;;;;;2.38;2.00;;;;;;;2.36;100.00;100618.16;4993399;28;20046;-79
2023/12/14 05:12:40;;;;;;;3.17;2.17;;;;;;;2.40;100.00;100618.53;5012356;28;20046;-78
2023/12/14 05:15:13;;;;;;;2.35;1.80;;;;;;;2.40;100.00;100622.03;4997855;28;20049;-79
2023/12/14 05:17:41;;;;;;;2.00;1.80;;;;;;;2.34;100.00;100625.63;4994357;28;20414;-78
2023/12/14 05:20:10;;;;;;;3.25;1.73;;;;;;;2.42;100.00;100624.47;5007536;28;20784;-78
2023/12/14 05:22:43;;;;;;;2.20;2.00;;;;;;;2.42;100.00;100627.16;5003243;28;20049;-79
2023/12/14 05:25:12;;;;;;;1.50;1.40;;;;;;;2.46;100.00;100633.72;4990414;28;20046;-78
2023/12/14 05:27:46;;;;;;;3.17;2.00;;;;;;;2.33;100.00;100632.03;5002953;28;20054;-79
2023/12/14 05:30:15;;;;;;;3.85;2.20;;;;;;;2.32;100.00;100641.97;5004738;28;20046;-80
2023/12/14 05:32:43;;;;;;;3.85;2.42;;;;;;;2.29;100.00;100644.28;5001762;28;20057;-79
2023/12/14 05:35:11;;;;;;;2.83;1.92;;;;;;;2.29;100.00;100646.97;5002052;28;20428;-78
2023/12/14 05:37:44;;;;;;;1.98;1.77;;;;;;;2.37;100.00;100652.03;5010634;28;20045;-78
2023/12/14 05:40:17;;;;;;;2.65;2.30;;;;;;;2.22;100.00;100652.41;4994724;28;20589;-77
2023/12/14 05:42:47;;;;;;;4.15;2.15;;;;;;;2.31;100.00;100659.13;4994146;28;20050;-78
2023/12/14 05:45:20;;;;;;;2.35;2.15;;;;;;;2.35;100.00;100657.63;4999629;28;20712;-78
2023/12/14 05:47:53;;;;;;;2.38;1.98;;;;;;;2.28;100.00;100658.75;5010650;28;20050;-78
2023/12/14 05:50:22;;;;;;;3.17;2.20;;;;;;;2.35;100.00;100659.50;4996163;28;20053;-78
2023/12/14 05:52:55;;;;;;;2.83;2.08;;;;;;;2.34;100.00;100664.03;5003368;28;20054;-79
2023/12/14 05:55:28;;;;;;;2.22;1.92;;;;;;;2.24;100.00;100673.66;4997350;28;20054;-78
2023/12/14 05:58:03;;;;;;;2.58;2.03;;;;;;;2.32;100.00;100676.88;5009771;28;20525;-78
2023/12/14 06:00:37;;;;;;;3.15;2.10;;;;;;;2.35;100.00;100678.31;5007320;28;20108;-78
2023/12/14 06:03:05;;;;;;;4.10;2.38;;;;;;;2.26;100.00;100687.69;4993012;28;20042;-78
2023/12/14 06:05:38;;;;;;;2.45;2.05;;;;;;;2.19;100.00;100688.56;4993158;28;20042;-78
2023/12/14 06:08:11;;;;;;;2.50;2.08;;;;;;;2.28;100.00;100699.00;4986944;28;20050;-79
2023/12/14 06:10:39;;;;;;;2.33;1.98;;;;;;;2.25;100.00;100704.84;5010180;28;20053;-78
2023/12/14 06:13:09;;;;;;;2.10;1.90;;;;;;;2.27;100.00;100700.91;4991738;28;20061;-78
2023/12/14 06:15:37;;;;;;;2.95;1.70;;;;;;;2.23;100.00;100713.13;4998669;28;20053;-78
2023/12/14 06:18:05;;;;;;;2.80;2.30;;;;;;;2.22;100.00;100700.75;4997808;28;20146;-78
2023/12/14 06:20:38;;;;;;;1.88;1.70;;;;;;;2.32;100.00;100705.59;4997352;28;20061;-77
2023/12/14 06:23:07;;;;;;;2.03;1.85;;;;;;;2.23;100.00;100707.75;4998493;28;20501;-78
2023/12/14 06:25:35;;;;;;;2.58;1.73;;;;;;;2.23;100.00;100710.44;4996727;28;20050;-77
2023/12/14 06:28:09;;;;;;;1.88;1.70;;;;;;;2.29;100.00;100720.31;5010657;28;20046;-79
2023/12/14 06:30:43;;;;;;;2.42;1.70;;;;;;;2.22;100.00;100714.16;5010585;28;20041;-79
2023/12/14 06:33:11;;;;;;;1.70;1.60;;;;;;;2.28;100.00;100724.03;5006461;28;20057;-78
2023/12/14 06:35:44;;;;;;;2.35;2.03;;;;;;;2.32;100.00;100724.38;4993140;28;20054;-78
2023/12/14 06:38:17;;;;;;;2.03;1.75;;;;;;;2.29;100.00;100724.84;4993004;28;20046;-78
2023/12/14 06:40:51;;;;;;;4.32;1.77;;;;;;;2.31;100.00;100734.31;5011029;28;20042;-78
2023/12/14 06:43:26;;;;;;;1.38;1.27;;;;;;;2.43;100.00;100736.25;5005062;28;20058;-78
2023/12/14 06:45:54;;;;;;;3.28;2.05;;;;;;;2.37;100.00;100740.66;5009649;28;20582;-77
2023/12/14 06:48:27;;;;;;;1.55;1.45;;;;;;;2.44;100.00;100745.97;5008522;28;20672;-78
2023/12/14 06:50:55;;;;;;;2.95;2.22;;;;;;;2.37;100.00;100741.47;4991353;28;20050;-78
2023/12/14 06:53:23;;;;;;;2.42;2.00;;;;;;;2.49;100.00;100744.22;5003168;28;20088;-78
2023/12/14 06:55:57;;;;;;;1.45;1.35;;;;;;;2.55;100.00;100746.03;4992829;28;20046;-79
2023/12/14 06:58:26;;;;;;;1.60;1.50;;;;;;;2.49;100.00;100748.78;4996321;28;20046;-78
2023/12/14 07:00:59;;;;;;;2.75;2.17;;;;;;;2.40;100.00;100756.31;5007907;28;20049;-78
2023/12/14 07:03:27;;;;;;;4.43;2.38;;;;;;;2.38;100.00;100758.41;5008234;28;20430;-78
2023/12/14 07:06:01;;;;;;;1.42;1.33;;;;;;;2.46;100.00;100766.19;5001929;28;20046;-78
2023/12/14 07:08:34;;;;;;;1.90;1.77;;;;;;;2.44;100.00;100765.56;5007495;28;20056;-78
2023/12/14 07:11:08;;;;;;;2.05;1.73;;;;;;;2.49;100.00;100776.47;4991506;28;20057;-80
2023/12/14 07:13:42;;;;;;;3.25;2.17;;;;;;;2.40;100.00;100774.31;5009814;28;20058;-78
2023/12/14 07:16:17;;;;;;;3.47;2.05;;;;;;;2.43;100.00;100776.53;4992189;28;20046;-78
2023/12/14 07:18:45;;;;;;;2.30;2.10;;;;;;;2.44;100.00;100781.69;4995650;28;20497;-79
2023/12/14 07:21:18;;;;;;;2.17;1.75;;;;;;;2.37;100.00;100781.75;4992104;28;20410;-80
2023/12/14 07:23:51;;;;;;;3.17;2.20;;;;;;;2.43;100.00;100781.91;5006812;28;20057;-79
2023/12/14 07:26:20;;;;;;;3.08;2.03;;;;;;;2.53;100.00;100784.91;4990606;28;20049;-80
2023/12/14 07:28:55;;;;;;;2.58;1.75;;;;;;;2.45;100.00;100791.41;4994178;28;20100;-78
2023/12/14 07:31:29;;;;;;;1.73;1.58;;;;;;;2.43;100.00;100787.28;4987530;28;20058;-82
2023/12/14 07:34:02;;;;;;;2.72;1.92;;;;;;;2.49;100.00;100791.78;4990357;28;20069;-78
2023/12/14 07:36:36;;;;;;;3.95;1.90;;;;;;;2.46;100.00;100800.25;4988704;28;20427;-78
2023/12/14 07:39:09;;;;;;;3.00;2.45;;;;;;;2.39;100.00;100811.09;5005034;28;20046;-78
2023/12/14 07:41:38;;;;;;;6.65;2.08;;;;;;;2.54;100.00;100808.03;5006942;28;20812;-78
2023/12/14 07:44:12;;;;;;;1.50;1.40;;;;;;;2.54;100.00;100825.00;5010284;28;20038;-79
2023/12/14 07:46:45;;;;;;;2.30;1.95;;;;;;;2.49;100.00;100829.38;5008779;28;20057;-79
2023/12/14 07:49:14;;;;;;;4.10;2.70;;;;;;;2.58;100.00;100833.41;5000988;28;20438;-80
2023/12/14 07:51:47;;;;;;;4.55;2.70;;;;;;;2.51;100.00;100832.66;4988200;28;20436;-79
2023/12/14 07:54:16;;;;;;;6.28;3.03;;;;;;;2.53;100.00;100842.16;4991767;28;20434;-79
2023/12/14 07:56:44;;;;;;;5.65;2.85;;;;;;;2.47;100.00;100843.03;4994595;28;20443;-78
2023/12/14 07:59:14;;;;;;;8.23;3.50;;;;;;;2.52;100.00;100851.25;4987097;28;20430;-78
2023/12/14 08:01:47;;;;;;;7.10;3.00;;;;;;;2.61;100.00;100861.69;4984011;28;20421;-82
2023/12/14 08:04:15;;;;;;;7.70;3.30;;;;;;;2.64;100.00;100867.47;4991807;28;20451;-78
2023/12/14 08:06:44;;;;;;;8.05;3.58;;;;;;;2.52;100.00;100880.78;5005456;28;20449;-78
2023/12/14 08:09:17;;;;;;;7.80;3.30;;;;;;;2.58;100.00;100884.44;4992589;28;20436;-81
2023/12/14 08:11:45;;;;;;;7.80;3.30;;;;;;;2.69;100.00;100889.13;4990108;28;20432;-79
2023/12/14 08:14:15;;;;;;;8.05;3.70;;;;;;;2.57;100.00;100884.69;5005096;28;21312;-79
2023/12/14 08:16:48;;;;;;;8.87;3.43;;;;;;;2.66;100.00;100899.47;4990128;28;20506;-79
2023/12/14 08:19:22;;;;;;;7.88;3.50;;;;;;;2.67;100.00;100903.81;4988352;28;20813;-81
2023/12/14 08:21:55;;;;;;;11.95;3.67;;;;;;;2.67;100.00;100918.06;5005308;28;20773;-79
2023/12/14 08:24:23;;;;;;;8.45;3.60;;;;;;;2.74;100.00;100914.50;5005900;28;20463;-83
2023/12/14 08:26:57;;;;;;;7.50;3.72;;;;;;;2.73;100.00;100913.66;4991130;28;20440;-77
2023/12/14 08:29:32;;;;;;;10.23;3.63;;;;;;;2.68;100.00;100921.56;4990337;28;20453;-79
2023/12/14 08:32:00;;;;;;;8.45;3.50;;;;;;;2.79;100.00;100926.25;4990925;28;20810;-83
2023/12/14 08:34:33;;;;;;;9.23;3.78;;;;;;;2.71;100.00;100927.34;4990357;28;20427;-78
2023/12/14 08:37:07;;;;;;;9.45;4.10;;;;;;;2.68;100.00;100929.63;5004652;28;20432;-78
2023/12/14 08:39:35;;;;;;;8.95;3.90;;;;;;;2.76;100.00;100936.59;4997580;28;20438;-78
2023/12/14 08:42:08;;;;;;;9.43;3.80;;;;;;;2.72;100.00;100925.47;5009280;28;20511;-78
2023/12/14 08:44:39;;;;;;;13.23;4.45;;;;;;;2.91;100.00;100930.88;4987066;28;20438;-78
2023/12/14 08:47:08;;;;;;;9.60;4.10;;;;;;;2.89;100.00;100931.09;4990615;28;21081;-78
2023/12/14 08:49:42;;;;;;;8.32;4.22;;;;;;;2.71;100.00;100924.66;4994043;28;20784;-78
2023/12/14 08:52:11;;;;;;;10.63;4.78;;;;;;;2.70;100.00;100925.69;5003037;28;20432;-78
2023/12/14 08:54:42;;;;;;;10.40;4.68;;;;;;;2.85;100.00;100924.53;4988268;28;20422;-80
2023/12/14 08:57:16;;;;;;;10.52;4.72;;;;;;;2.77;100.00;100940.94;5002658;28;20417;-78
2023/12/14 08:59:50;;;;;;;11.90;4.90;;;;;;;2.82;100.00;100939.22;5007691;28;20763;-79
2023/12/14 09:02:19;;;;;;;9.90;4.45;;;;;;;2.84;100.00;100939.00;4988332;28;20909;-77
2023/12/14 09:04:47;;;;;;;11.45;4.35;;;;;;;2.76;100.00;100956.22;5003196;28;20429;-79
2023/12/14 09:07:20;;;;;;;9.52;4.65;;;;;;;2.74;100.00;100958.31;4989675;28;20437;-78
2023/12/14 09:09:49;;;;;;;9.82;4.85;;;;;;;2.81;100.00;100958.25;4958238;28;20421;-82
2023/12/14 09:12:17;;;;;;;10.90;4.90;;;;;;;2.88;100.00;100961.72;4975098;28;20774;-81
2023/12/14 09:14:45;;;;;;;10.25;4.70;;;;;;;2.84;100.00;100965.88;4976529;28;20428;-79
2023/12/14 09:17:20;;;;;;;8.32;4.45;;;;;;;2.87;100.00;100971.66;4973024;28;20433;-82
2023/12/14 09:19:48;;;;;;;9.75;4.68;;;;;;;2.77;100.00;100978.56;4966437;28;20436;-79
2023/12/14 09:22:17;;;;;;;11.75;4.72;;;;;;;2.91;100.00;100985.44;4970315;28;20483;-81
2023/12/14 09:24:45;;;;;;;10.02;4.47;;;;;;;2.88;100.00;100983.22;4987211;28;21032;-77
2023/12/14 09:27:13;;;;;;;8.27;4.38;;;;;;;2.96;100.00;100998.25;4990072;28;20417;-81
2023/12/14 09:29:42;;;;;;;11.90;4.93;;;;;;;2.91;100.00;100998.06;4984272;28;20420;-79
2023/12/14 09:32:10;;;;;;;12.38;5.05;;;;;;;2.75;100.00;100997.59;4964637;28;20809;-81
2023/12/14 09:34:44;;;;;;;11.27;4.90;;;;;;;3.01;100.00;100991.16;4973240;28;20459;-79
2023/12/14 09:37:14;;;;;;;10.32;4.80;;;;;;;3.06;100.00;101003.94;4971338;28;20432;-82
2023/12/14 09:39:42;;;;;;;11.20;4.87;;;;;;;2.97;100.00;101005.25;4985544;28;20424;-79
2023/12/14 09:42:19;;;;;;;9.05;4.60;;;;;;;3.07;100.00;101016.34;4972609;28;20460;-79
2023/12/14 09:44:53;;;;;;;11.23;4.97;;;;;;;3.05;100.00;101018.41;4974531;28;20432;-82
2023/12/14 09:47:27;;;;;;;8.85;4.10;;;;;;;2.86;100.00;101020.25;4976971;28;21237;-81
2023/12/14 09:50:03;;;;;;;11.37;4.70;;;;;;;2.97;100.00;101024.91;4973852;28;20436;-79
2023/12/14 09:52:36;;;;;;;10.38;4.72;;;;;;;2.87;100.00;101025.41;4979529;28;20437;-81
2023/12/14 09:55:09;;;;;;;11.27;4.80;;;;;;;3.04;100.00;101024.84;4972395;28;20434;-79
2023/12/14 09:57:37;;;;;;;9.13;4.50;;;;;;;3.06;100.00;101036.19;4970460;28;20421;-82
2023/12/14 10:00:14;;;;;;;9.50;4.70;;;;;;;3.06;100.00;101031.63;4986046;28;21187;-81
2023/12/14 10:02:42;;;;;;;10.23;4.73;;;;;;;3.02;100.00;101033.13;4987239;28;20421;-82
2023/12/14 10:05:12;;;;;;;10.38;4.80;;;;;;;2.93;100.00;101039.00;4971190;28;20451;-82
2023/12/14 10:07:43;;;;;;;10.07;4.15;;;;;;;3.13;100.00;101028.06;4972630;28;20459;-80
2023/12/14 10:10:16;;;;;;;10.38;4.70;;;;;;;3.00;100.00;101045.16;4951738;28;21106;-80
2023/12/14 10:12:54;;;;;;;9.98;4.63;;;;;;;3.17;100.00;101029.28;4972070;28;20433;-78
2023/12/14 10:15:27;;;;;;;8.73;4.03;;;;;;;3.26;100.00;101035.19;4979008;28;20437;-81
2023/12/14 10:18:00;;;;;;;9.15;3.75;;;;;;;3.02;100.00;101041.19;4991218;28;20439;-82
2023/12/14 10:20:36;;;;;;;9.13;3.88;;;;;;;3.08;100.00;101042.19;4972914;28;20451;-82
2023/12/14 10:23:06;;;;;;;9.38;3.95;;;;;;;3.10;100.00;101050.03;4975366;28;20436;-81
2023/12/14 10:25:39;;;;;;;11.07;4.20;;;;;;;3.18;100.00;101034.44;4998341;28;20428;-82
2023/12/14 10:28:13;;;;;;;7.63;3.78;;;;;;;3.26;100.00;101040.56;4986777;28;20417;-82
2023/12/14 10:30:41;;;;;;;10.83;3.90;;;;;;;3.17;100.00;101045.41;4979413;28;20436;-78
2023/12/14 10:33:16;;;;;;;9.73;4.00;;;;;;;3.23;100.00;101050.72;4974825;28;20425;-79
2023/12/14 10:35:46;;;;;;;10.90;4.05;;;;;;;3.30;100.00;101052.53;4976905;28;20936;-82
2023/12/14 10:38:21;;;;;;;9.60;4.32;;;;;;;3.23;100.00;101061.50;4972256;28;20433;-81
2023/12/14 10:40:49;;;;;;;9.25;4.38;;;;;;;3.32;100.00;101055.81;4989204;28;21375;-82
2023/12/14 10:43:23;;;;;;;11.02;4.40;;;;;;;3.34;100.00;101054.56;4972130;28;20429;-82
2023/12/14 10:45:53;;;;;;;9.25;4.30;;;;;;;3.38;100.00;101063.00;4995325;28;20420;-81
2023/12/14 10:48:29;;;;;;;10.43;4.35;;;;;;;3.42;100.00;101069.56;4973265;28;20440;-80
2023/12/14 10:51:05;;;;;;;10.43;4.10;;;;;;;3.43;100.00;101067.72;4977794;28;20421;-81
2023/12/14 10:53:39;;;;;;;8.45;4.35;;;;;;;3.33;100.00;101082.50;4975340;28;20998;-77
2023/12/14 10:56:12;;;;;;;8.40;4.23;;;;;;;3.26;100.00;101086.28;4988746;28;20431;-81
2023/12/14 10:58:49;;;;;;;9.20;3.90;;;;;;;3.12;100.00;101090.97;4970807;28;20432;-78
2023/12/14 11:01:24;;;;;;;9.73;4.45;;;;;;;3.46;100.00;101091.50;4980894;28;20437;-83
2023/12/14 11:04:00;;;;;;;9.73;3.90;;;;;;;3.38;100.00;101098.81;4971083;28;20440;-78
2023/12/14 11:06:34;;;;;;;8.15;3.53;;;;;;;3.27;100.00;101098.69;4991096;28;20421;-83
2023/12/14 11:09:12;;;;;;;10.38;4.03;;;;;;;3.23;100.00;101096.47;4946757;28;20448;-81
2023/12/14 11:11:57;;;;;;;12.18;4.00;;;;;;;3.25;100.00;101101.63;4971108;28;20533;-79
2023/12/14 11:14:30;;;;;;;8.45;3.70;;;;;;;3.19;100.00;101106.00;4972047;28;21744;-79
2023/12/14 11:17:06;;;;;;;9.50;4.15;;;;;;;3.16;100.00;101116.38;4989134;28;20440;-83
2023/12/14 11:19:40;;;;;;;8.23;3.90;;;;;;;3.31;100.00;101116.03;4976586;28;20459;-79
2023/12/14 11:22:23;;;;;;;11.45;4.35;;;;;;;3.20;100.00;101118.44;4970729;28;20447;-80
2023/12/14 11:24:53;;;;;;;9.35;3.95;;;;;;;3.24;100.00;101116.09;4993867;28;21219;-80
2023/12/14 11:27:29;;;;;;;7.85;3.63;;;;;;;3.12;100.00;101115.16;4976572;28;20451;-83
2023/12/14 11:29:57;;;;;;;8.45;3.50;;;;;;;3.31;100.00;101130.31;4971759;28;20451;-82
2023/12/14 11:32:26;;;;;;;7.93;3.60;;;;;;;3.39;100.00;101135.41;4972397;28;21064;-81
2023/12/14 11:34:56;;;;;;;7.88;3.55;;;;;;;3.36;100.00;101129.66;4971877;28;20459;-79
2023/12/14 11:37:34;;;;;;;10.23;3.83;;;;;;;3.30;100.00;101135.91;4975879;28;20436;-79
2023/12/14 11:40:09;;;;;;;7.93;3.80;;;;;;;3.49;100.00;101142.97;4986927;28;20429;-79
2023/12/14 11:42:37;;;;;;;8.65;3.88;;;;;;;3.51;100.00;101143.59;4976582;28;20443;-79
2023/12/14 11:45:07;;;;;;;7.55;3.50;;;;;;;3.56;100.00;101140.22;4974850;28;20428;-80